Time;durP1;ratioP1;P1;durP2;ratioP2;P2;SDS_P1;SDS_P2;PMS_P1;PMS_P2;Temp;Humidity;BMP_temperature;BMP_pressure;BME280_temperature;BME280_humidity;BME280_pressure;Samples;Min_cycle;Max_cycle;Signal;HPM_P1;HPM_P2
2022/01/20 00:00:33;;;;;;;115.43;25.90;;;;;;;-5.16;nan;101299.84;5011240;28;20395;-71
2022/01/20 00:03:02;;;;;;;98.10;25.98;;;;;;;-5.09;nan;101308.78;5018968;28;20033;-70
2022/01/20 00:06:00;;;;;;;110.90;25.40;;;;;;;-5.29;nan;101279.28;5013249;28;20053;-70
2022/01/20 00:27:34;;;;;;;62.35;18.75;;;;;;;-5.42;nan;101263.03;5019870;28;20034;-70
2022/01/20 00:30:33;;;;;;;63.23;19.30;;;;;;;-5.39;nan;101273.94;5022330;28;20058;-71
2022/01/20 00:35:31;;;;;;;74.30;19.98;;;;;;;-5.48;nan;101258.28;5026030;28;20368;-71
2022/01/20 00:37:56;;;;;;;68.70;19.85;;;;;;;-5.41;nan;101268.06;5029064;28;20040;-72
2022/01/20 00:40:23;;;;;;;78.82;20.27;;;;;;;-5.49;nan;101260.03;5033641;28;20029;-71
2022/01/20 00:42:49;;;;;;;64.00;20.02;;;;;;;-5.56;nan;101248.53;5032759;28;20033;-71
2022/01/20 00:45:15;;;;;;;84.65;22.02;;;;;;;-5.49;nan;101254.09;5014182;28;20642;-70
2022/01/20 00:47:41;;;;;;;62.60;20.27;;;;;;;-5.63;nan;101231.88;5033637;28;20022;-71
2022/01/20 00:50:11;;;;;;;71.03;19.85;;;;;;;-5.62;nan;101246.38;5033317;28;20034;-72
2022/01/20 00:52:37;;;;;;;65.35;21.58;;;;;;;-5.73;nan;101236.78;5014189;28;20044;-72
2022/01/20 00:55:05;;;;;;;60.60;20.92;;;;;;;-5.78;nan;101221.69;5032586;28;20037;-72
2022/01/20 00:57:30;;;;;;;63.80;22.30;;;;;;;-5.72;nan;101225.63;5032697;28;20111;-72
2022/01/20 00:59:56;;;;;;;69.63;22.83;;;;;;;-5.72;nan;101219.66;5032398;28;20025;-72
2022/01/20 01:02:22;;;;;;;70.30;23.58;;;;;;;-5.73;nan;101216.25;5034995;28;20037;-72
2022/01/20 01:04:48;;;;;;;69.72;23.67;;;;;;;-5.78;nan;101215.75;5048739;28;20053;-72
2022/01/20 01:10:16;;;;;;;71.35;23.25;;;;;;;-5.69;nan;101206.63;4985124;28;20049;-72
2022/01/20 01:12:51;;;;;;;70.35;23.85;;;;;;;-5.79;nan;101196.16;5032616;28;20026;-73
2022/01/20 01:15:22;;;;;;;66.45;25.10;;;;;;;-5.70;nan;101198.09;5033361;28;20041;-72
2022/01/20 01:20:45;;;;;;;60.70;24.45;;;;;;;-5.59;nan;101199.97;5032146;28;20033;-72
2022/01/20 01:23:10;;;;;;;49.88;18.45;;;;;;;-5.51;nan;101197.72;5023037;28;20030;-72
2022/01/20 01:25:36;;;;;;;71.60;26.30;;;;;;;-5.67;nan;101174.84;5031789;28;20036;-71
2022/01/20 01:28:01;;;;;;;74.38;26.30;;;;;;;-5.60;nan;101170.13;5033198;28;20037;-71
2022/01/20 01:31:32;;;;;;;71.45;25.90;;;;;;;-5.67;nan;101167.13;5032683;28;20033;-71
2022/01/20 01:33:22;;;;;;;70.43;27.25;;;;;;;-5.64;nan;101160.97;5013498;28;20044;-72
2022/01/20 01:35:55;;;;;;;72.00;26.60;;;;;;;-5.58;nan;101163.13;5032335;28;20033;-71
2022/01/20 01:38:36;;;;;;;73.80;27.63;;;;;;;-5.54;nan;101168.88;5032635;28;20372;-71
2022/01/20 01:41:10;;;;;;;68.30;25.35;;;;;;;-5.59;nan;101159.75;5018474;28;20033;-71
2022/01/20 01:43:38;;;;;;;70.35;26.90;;;;;;;-5.50;nan;101168.59;5038774;28;20475;-71
2022/01/20 01:46:04;;;;;;;73.40;26.25;;;;;;;-5.45;nan;101174.22;5031903;28;20026;-71
2022/01/20 01:48:29;;;;;;;73.05;27.67;;;;;;;-5.45;nan;101171.66;5034547;28;20041;-70
2022/01/20 01:50:56;;;;;;;73.15;27.70;;;;;;;-5.41;nan;101170.53;5038335;28;20026;-71
2022/01/20 01:53:22;;;;;;;68.47;25.42;;;;;;;-5.46;nan;101175.16;5036693;28;20398;-71
2022/01/20 01:55:47;;;;;;;71.80;26.95;;;;;;;-5.43;nan;101177.53;5036982;28;20025;-71
2022/01/20 01:58:13;;;;;;;68.97;27.00;;;;;;;-5.43;nan;101162.13;5037868;28;20112;-70
2022/01/20 02:00:40;;;;;;;73.65;27.63;;;;;;;-5.44;nan;101157.09;5014464;28;20061;-72
2022/01/20 02:03:06;;;;;;;71.95;27.75;;;;;;;-5.51;nan;101138.69;5016459;28;20069;-71
2022/01/20 02:05:33;;;;;;;68.30;28.15;;;;;;;-5.43;nan;101151.03;5031225;28;20073;-71
2022/01/20 02:18:48;;;;;;;65.97;25.23;;;;;;;-5.29;nan;101148.38;5047043;28;19921;-70
2022/01/20 02:21:14;;;;;;;66.13;26.77;;;;;;;-5.27;nan;101143.94;5031787;28;20495;-72
2022/01/20 02:23:40;;;;;;;67.63;27.10;;;;;;;-5.28;nan;101146.63;5030768;28;20045;-71
2022/01/20 02:26:05;;;;;;;61.75;26.10;;;;;;;-5.32;nan;101135.72;5032204;28;20193;-73
2022/01/20 02:28:31;;;;;;;68.47;26.33;;;;;;;-5.39;nan;101114.81;5012010;28;20049;-72
2022/01/20 02:30:56;;;;;;;67.18;27.50;;;;;;;-5.49;nan;101098.38;5031693;28;20402;-71
2022/01/20 02:33:24;;;;;;;68.70;27.05;;;;;;;-5.38;nan;101121.56;5031935;28;20080;-71
2022/01/20 02:35:53;;;;;;;71.15;28.00;;;;;;;-5.44;nan;101124.53;5013358;28;20037;-71
2022/01/20 02:46:25;;;;;;;64.53;26.25;;;;;;;-5.77;nan;101069.44;5031895;28;20029;-72
2022/01/20 02:48:50;;;;;;;62.28;25.45;;;;;;;-5.51;nan;101110.47;5031537;28;20032;-72
2022/01/20 02:51:16;;;;;;;67.90;26.60;;;;;;;-5.57;nan;101098.06;5012840;28;20037;-72
2022/01/20 02:53:41;;;;;;;64.50;26.17;;;;;;;-5.53;nan;101096.94;5030873;28;20045;-72
2022/01/20 02:56:07;;;;;;;70.65;28.42;;;;;;;-5.43;nan;101113.34;5025063;28;20580;-72
2022/01/20 02:58:32;;;;;;;78.60;29.45;;;;;;;-5.45;nan;101099.81;5013808;28;20024;-72
2022/01/20 03:00:59;;;;;;;65.68;27.73;;;;;;;-5.44;nan;101093.75;5013394;28;20140;-72
2022/01/20 03:03:25;;;;;;;74.03;28.50;;;;;;;-5.41;nan;101106.38;5041777;28;20049;-72
2022/01/20 03:05:50;;;;;;;63.67;26.52;;;;;;;-5.50;nan;101085.66;5007558;28;20115;-72
2022/01/20 03:08:16;;;;;;;67.55;27.15;;;;;;;-5.35;nan;101116.22;5030705;28;20437;-72
2022/01/20 03:10:41;;;;;;;61.05;26.10;;;;;;;-5.43;nan;101097.97;5011358;28;20053;-72
2022/01/20 03:13:07;;;;;;;64.97;27.00;;;;;;;-5.34;nan;101114.47;5029354;28;20049;-72
2022/01/20 03:15:35;;;;;;;67.45;26.40;;;;;;;-5.42;nan;101104.72;5015882;28;20383;-72
2022/01/20 03:18:02;;;;;;;65.68;26.48;;;;;;;-5.31;nan;101116.03;5053896;28;20033;-72
2022/01/20 03:20:28;;;;;;;68.55;26.83;;;;;;;-5.32;nan;101116.94;5013325;28;20475;-71
2022/01/20 03:22:53;;;;;;;66.03;25.38;;;;;;;-5.42;nan;101111.59;5015991;28;20047;-72
2022/01/20 03:25:19;;;;;;;61.95;26.00;;;;;;;-5.48;nan;101100.03;5035185;28;20036;-71
2022/01/20 03:27:44;;;;;;;66.85;26.45;;;;;;;-5.40;nan;101109.75;5016111;28;20060;-72
2022/01/20 03:30:10;;;;;;;65.10;24.92;;;;;;;-5.39;nan;101119.94;5017178;28;20132;-71
2022/01/20 03:32:36;;;;;;;66.10;26.90;;;;;;;-5.45;nan;101104.94;5015914;28;20124;-71
2022/01/20 03:35:03;;;;;;;64.40;26.35;;;;;;;-5.43;nan;101113.34;5033926;28;20262;-72
2022/01/20 03:37:29;;;;;;;65.13;26.05;;;;;;;-5.56;nan;101097.13;5016582;28;20043;-72
2022/01/20 03:39:54;;;;;;;63.38;25.25;;;;;;;-5.45;nan;101101.56;5033944;28;20087;-72
2022/01/20 03:42:19;;;;;;;63.88;26.95;;;;;;;-5.44;nan;101098.88;5035168;28;20064;-72
2022/01/20 03:44:45;;;;;;;62.15;26.13;;;;;;;-5.45;nan;101094.69;5033618;28;20152;-72
2022/01/20 03:47:11;;;;;;;71.35;26.15;;;;;;;-5.44;nan;101104.00;5033878;28;20687;-70
2022/01/20 03:49:52;;;;;;;68.68;25.95;;;;;;;-5.44;nan;101109.13;5028918;28;20040;-71
2022/01/20 03:52:18;;;;;;;59.15;23.77;;;;;;;-5.53;nan;101098.66;5033857;28;20025;-71
2022/01/20 03:54:43;;;;;;;66.85;26.38;;;;;;;-5.59;nan;101097.34;5034238;28;20049;-71
2022/01/20 03:57:08;;;;;;;64.68;26.33;;;;;;;-5.92;nan;101060.19;5034783;28;20033;-71
2022/01/20 03:59:34;;;;;;;59.72;24.25;;;;;;;-5.74;nan;101094.06;5034528;28;20029;-72
2022/01/20 04:01:59;;;;;;;62.17;24.02;;;;;;;-5.71;nan;101095.59;5033331;28;20391;-71
2022/01/20 04:04:25;;;;;;;58.33;23.73;;;;;;;-5.60;nan;101111.13;5041703;28;20052;-72
2022/01/20 04:06:50;;;;;;;60.50;24.48;;;;;;;-5.77;nan;101077.16;5034161;28;20383;-71
2022/01/20 04:09:16;;;;;;;59.95;24.63;;;;;;;-5.69;nan;101081.75;5016779;28;20037;-70
2022/01/20 04:11:41;;;;;;;59.42;24.67;;;;;;;-5.74;nan;101083.00;5033181;28;20075;-71
2022/01/20 04:14:07;;;;;;;63.10;24.27;;;;;;;-5.78;nan;101100.31;5033538;28;20128;-71
2022/01/20 04:16:52;;;;;;;63.30;25.17;;;;;;;-5.80;nan;101092.72;5034131;28;20112;-71
2022/01/20 04:19:18;;;;;;;58.35;23.35;;;;;;;-5.90;nan;101091.69;5034125;28;20021;-71
2022/01/20 04:21:44;;;;;;;60.05;23.67;;;;;;;-5.87;nan;101088.91;5033689;28;20033;-71
2022/01/20 04:24:10;;;;;;;58.17;22.38;;;;;;;-5.94;nan;101089.47;5011762;28;20044;-71
2022/01/20 04:26:35;;;;;;;60.63;23.52;;;;;;;-6.01;nan;101079.63;5026536;28;20096;-72
2022/01/20 04:29:03;;;;;;;57.20;22.55;;;;;;;-5.99;nan;101090.56;5014796;28;20045;-71
2022/01/20 04:31:30;;;;;;;54.45;22.40;;;;;;;-6.08;nan;101078.38;5032847;28;20083;-71
2022/01/20 04:33:57;;;;;;;57.78;23.10;;;;;;;-6.13;nan;101064.19;5033278;28;20132;-71
2022/01/20 04:36:24;;;;;;;57.53;22.08;;;;;;;-6.03;nan;101085.78;5033380;28;20033;-71
2022/01/20 04:38:50;;;;;;;56.70;23.75;;;;;;;-6.12;nan;101081.25;5033947;28;20042;-71
2022/01/20 04:41:16;;;;;;;57.38;23.80;;;;;;;-6.37;nan;101035.88;5033851;28;20035;-70
2022/01/20 04:43:41;;;;;;;56.28;23.30;;;;;;;-6.12;nan;101071.81;5014988;28;20116;-72
2022/01/20 04:57:01;;;;;;;58.00;23.45;;;;;;;-5.91;nan;101089.22;4975114;28;20045;-72
2022/01/20 04:57:20;;;;;;;62.20;23.15;;;;;;;-5.84;nan;101083.59;4984685;28;20043;-72
2022/01/20 04:59:47;;;;;;;64.45;26.45;;;;;;;-5.93;nan;101065.44;4960236;28;20041;-72
2022/01/20 05:02:13;;;;;;;73.10;26.63;;;;;;;-5.88;nan;101079.59;4968580;28;20046;-72
2022/01/20 05:04:40;;;;;;;85.53;33.30;;;;;;;-5.81;nan;101087.72;4997465;28;20420;-71
2022/01/20 05:07:07;;;;;;;84.80;34.42;;;;;;;-5.85;nan;101089.63;4963892;28;20034;-72
2022/01/20 05:09:33;;;;;;;74.38;29.70;;;;;;;-5.84;nan;101086.16;4980643;28;20065;-72
2022/01/20 05:12:03;;;;;;;65.07;28.33;;;;;;;-5.77;nan;101094.25;4968742;28;20038;-69
2022/01/20 05:14:29;;;;;;;65.05;26.23;;;;;;;-5.88;nan;101073.66;4984599;28;20038;-74
2022/01/20 05:16:55;;;;;;;66.90;25.15;;;;;;;-5.74;nan;101095.81;4973358;28;20041;-74
2022/01/20 05:19:29;;;;;;;60.05;24.83;;;;;;;-5.85;nan;101078.56;4956005;28;20562;-73
2022/01/20 05:21:55;;;;;;;62.83;24.80;;;;;;;-5.87;nan;101078.66;4956258;28;20039;-74
2022/01/20 05:24:22;;;;;;;66.13;24.23;;;;;;;-5.72;nan;101092.22;4969255;28;20042;-75
2022/01/20 05:26:50;;;;;;;62.05;24.02;;;;;;;-5.73;nan;101094.88;5005563;28;20399;-74
2022/01/20 05:29:19;;;;;;;64.25;24.77;;;;;;;-5.80;nan;101086.78;5031211;28;20132;-73
2022/01/20 05:31:44;;;;;;;63.63;24.90;;;;;;;-5.93;nan;101063.69;5033887;28;20466;-75
2022/01/20 05:34:10;;;;;;;66.97;24.77;;;;;;;-5.79;nan;101096.94;5033799;28;20048;-75
2022/01/20 05:36:36;;;;;;;62.67;26.35;;;;;;;-5.94;nan;101074.88;5014412;28;20493;-72
2022/01/20 05:39:03;;;;;;;53.85;24.55;;;;;;;-5.77;nan;101095.09;5012992;28;20057;-74
2022/01/20 05:41:28;;;;;;;64.80;25.85;;;;;;;-5.92;nan;101072.19;5033059;28;20120;-75
2022/01/20 05:43:54;;;;;;;57.50;24.52;;;;;;;-5.88;nan;101077.03;5029259;28;20169;-72
2022/01/20 05:46:23;;;;;;;63.88;25.00;;;;;;;-5.95;nan;101078.38;5032665;28;20153;-72
2022/01/20 05:48:49;;;;;;;55.30;23.40;;;;;;;-5.94;nan;101071.50;5032695;28;20033;-71
2022/01/20 05:51:15;;;;;;;61.90;25.83;;;;;;;-5.91;nan;101059.28;5013284;28;20045;-71
2022/01/20 05:53:41;;;;;;;56.38;23.45;;;;;;;-5.75;nan;101084.72;5012383;28;20068;-72
2022/01/20 05:56:06;;;;;;;59.97;24.80;;;;;;;-5.84;nan;101068.22;5012847;28;20471;-72
2022/01/20 05:58:36;;;;;;;58.22;23.35;;;;;;;-5.78;nan;101080.63;5030197;28;20029;-71
2022/01/20 06:01:07;;;;;;;57.40;23.98;;;;;;;-5.83;nan;101081.84;5028117;28;20491;-72
2022/01/20 06:03:36;;;;;;;55.95;23.20;;;;;;;-5.92;nan;101065.31;5031431;28;20453;-73
2022/01/20 06:06:02;;;;;;;54.85;21.80;;;;;;;-5.72;nan;101086.25;5026248;28;20056;-73
2022/01/20 06:08:27;;;;;;;57.88;22.30;;;;;;;-5.79;nan;101062.78;5031523;28;20033;-72
2022/01/20 06:10:53;;;;;;;59.63;21.98;;;;;;;-5.61;nan;101079.47;5008011;28;20038;-73
2022/01/20 06:13:18;;;;;;;58.97;22.52;;;;;;;-5.41;nan;101096.13;5013534;28;20116;-73
2022/01/20 06:15:44;;;;;;;58.78;22.58;;;;;;;-5.40;nan;101097.75;5013274;28;20030;-73
2022/01/20 06:18:10;;;;;;;55.70;22.98;;;;;;;-5.35;nan;101100.00;5033263;28;20038;-73
2022/01/20 06:20:37;;;;;;;58.20;23.75;;;;;;;-5.28;nan;101097.84;5005265;28;20040;-72
2022/01/20 06:23:07;;;;;;;55.17;23.13;;;;;;;-5.36;nan;101106.88;5029646;28;20033;-73
2022/01/20 06:25:33;;;;;;;48.38;21.05;;;;;;;-5.42;nan;101111.59;5029320;28;20037;-74
2022/01/20 06:27:58;;;;;;;51.42;20.73;;;;;;;-5.39;nan;101116.53;5031965;28;20387;-72
2022/01/20 06:30:25;;;;;;;53.50;21.90;;;;;;;-5.52;nan;101108.03;5027704;28;20037;-72
2022/01/20 06:32:51;;;;;;;49.60;21.38;;;;;;;-5.57;nan;101100.63;5002279;28;20065;-72
2022/01/20 06:35:17;;;;;;;59.83;22.40;;;;;;;-5.49;nan;101100.13;5024360;28;20038;-72
2022/01/20 06:37:42;;;;;;;56.55;22.48;;;;;;;-5.42;nan;101111.59;5022011;28;20073;-73
2022/01/20 06:40:08;;;;;;;64.45;22.77;;;;;;;-5.54;nan;101073.94;5032113;28;20041;-74
2022/01/20 06:42:34;;;;;;;56.03;23.45;;;;;;;-5.21;nan;101111.91;5015992;28;20038;-73
2022/01/20 06:45:00;;;;;;;57.28;23.77;;;;;;;-5.22;nan;101092.28;5029969;28;20037;-73
2022/01/20 06:47:25;;;;;;;56.28;23.13;;;;;;;-5.16;nan;101086.72;5007299;28;20037;-71
2022/01/20 06:49:51;;;;;;;61.88;24.58;;;;;;;-4.92;nan;101102.19;5033245;28;20480;-74
2022/01/20 06:52:16;;;;;;;59.28;24.63;;;;;;;-4.84;nan;101101.63;5035638;28;20108;-74
2022/01/20 06:54:42;;;;;;;55.90;22.90;;;;;;;-4.77;nan;101106.22;5034691;28;20407;-74
2022/01/20 06:57:07;;;;;;;57.17;21.83;;;;;;;-4.85;nan;101092.31;5017002;28;20126;-75
2022/01/20 06:59:32;;;;;;;55.85;22.85;;;;;;;-4.72;nan;101100.78;5015204;28;20040;-75
2022/01/20 07:01:58;;;;;;;57.72;23.77;;;;;;;-4.60;nan;101104.22;5030852;28;20029;-75
2022/01/20 07:04:26;;;;;;;58.60;26.70;;;;;;;-4.45;nan;101102.31;5036680;28;20117;-73
2022/01/20 07:06:52;;;;;;;91.90;35.65;;;;;;;-4.36;nan;101076.75;5027813;28;20122;-74
2022/01/20 07:09:17;;;;;;;81.47;35.53;;;;;;;-3.89;nan;101076.78;5015742;28;20117;-74
2022/01/20 07:11:43;;;;;;;103.75;34.38;;;;;;;-3.77;nan;101060.41;5027406;28;20048;-75
2022/01/20 07:14:08;;;;;;;73.68;30.52;;;;;;;-3.73;nan;101053.31;5034857;28;20046;-75
2022/01/20 07:16:35;;;;;;;75.43;27.27;;;;;;;-3.81;nan;101063.34;5011706;28;20400;-74
2022/01/20 07:19:00;;;;;;;57.30;25.98;;;;;;;-3.81;nan;101063.34;5024597;28;20531;-73
2022/01/20 07:21:27;;;;;;;55.72;25.15;;;;;;;-3.74;nan;101093.63;5034465;28;20041;-75
2022/01/20 07:23:53;;;;;;;65.65;27.30;;;;;;;-3.78;nan;101097.38;4999128;28;20034;-75
2022/01/20 07:26:18;;;;;;;65.85;26.15;;;;;;;-3.89;nan;101084.50;5011847;28;20037;-72
2022/01/20 07:28:44;;;;;;;67.32;26.92;;;;;;;-3.81;nan;101087.31;5016404;28;20033;-74
2022/01/20 07:31:09;;;;;;;66.50;27.05;;;;;;;-3.71;nan;101088.28;5034796;28;20124;-74
2022/01/20 07:33:35;;;;;;;68.57;27.88;;;;;;;-3.72;nan;101096.09;5027835;28;20124;-72
2022/01/20 07:36:01;;;;;;;69.45;28.75;;;;;;;-3.61;nan;101105.59;5015986;28;20104;-72
2022/01/20 07:38:26;;;;;;;68.75;28.25;;;;;;;-3.70;nan;101076.22;5034617;28;20030;-74
2022/01/20 07:40:52;;;;;;;62.95;26.55;;;;;;;-3.52;nan;101067.13;5014488;28;20033;-73
2022/01/20 07:43:17;;;;;;;65.72;26.52;;;;;;;-3.45;nan;101067.44;5034745;28;20025;-74
2022/01/20 07:45:43;;;;;;;58.03;25.27;;;;;;;-3.40;nan;101080.78;5033676;28;20121;-73
2022/01/20 07:48:09;;;;;;;57.72;25.85;;;;;;;-3.42;nan;101080.91;5034681;28;20033;-73
2022/01/20 07:50:35;;;;;;;67.72;27.52;;;;;;;-3.35;nan;101091.56;5032998;28;20553;-73
2022/01/20 07:53:00;;;;;;;68.70;27.98;;;;;;;-3.32;nan;101093.09;5034646;28;20498;-74
2022/01/20 07:55:26;;;;;;;65.15;27.58;;;;;;;-3.17;nan;101103.97;5033224;28;20053;-73
2022/01/20 07:57:51;;;;;;;72.53;29.33;;;;;;;-3.06;nan;101104.78;5033882;28;20037;-72
2022/01/20 08:00:17;;;;;;;73.82;33.22;;;;;;;-3.08;nan;101109.22;5032481;28;20037;-73
2022/01/20 08:02:43;;;;;;;69.22;32.13;;;;;;;-3.15;nan;101120.13;5038701;28;20546;-73
2022/01/20 08:05:09;;;;;;;71.75;30.15;;;;;;;-3.19;nan;101103.25;5043556;28;20091;-72
2022/01/20 08:07:34;;;;;;;71.00;29.73;;;;;;;-3.26;nan;101093.41;5016131;28;20041;-73
2022/01/20 08:10:00;;;;;;;71.45;29.00;;;;;;;-3.18;nan;101089.44;5016583;28;20061;-73
2022/01/20 08:12:26;;;;;;;59.83;26.35;;;;;;;-3.09;nan;101089.56;5034773;28;20040;-76
2022/01/20 08:14:52;;;;;;;60.53;26.13;;;;;;;-3.36;nan;101053.88;5033901;28;20491;-73
2022/01/20 08:17:18;;;;;;;64.47;25.35;;;;;;;-2.98;nan;101101.59;5047591;28;20059;-72
2022/01/20 08:19:44;;;;;;;56.42;24.90;;;;;;;-3.04;nan;101077.16;5040379;28;20475;-72
2022/01/20 08:22:10;;;;;;;56.70;24.27;;;;;;;-3.08;nan;101064.63;5034754;28;20605;-72
2022/01/20 08:24:35;;;;;;;55.47;23.75;;;;;;;-3.05;nan;101070.34;5018732;28;20398;-73
2022/01/20 08:27:01;;;;;;;57.85;24.20;;;;;;;-3.00;nan;101080.28;5036023;28;20035;-72
2022/01/20 08:29:26;;;;;;;58.33;24.98;;;;;;;-2.91;nan;101107.91;5031933;28;20037;-70
2022/01/20 08:31:52;;;;;;;59.58;24.45;;;;;;;-2.92;nan;101095.97;5034087;28;20040;-71
2022/01/20 08:34:17;;;;;;;53.13;24.67;;;;;;;-2.92;nan;101075.38;5034262;28;20090;-72
2022/01/20 08:36:44;;;;;;;56.78;26.13;;;;;;;-2.83;nan;101081.53;5033607;28;20036;-72
2022/01/20 08:42:07;;;;;;;65.32;27.23;;;;;;;-2.84;nan;101067.84;4978656;28;20064;-72
2022/01/20 08:44:34;;;;;;;64.57;26.92;;;;;;;-2.67;nan;101091.47;5031654;28;20475;-72
2022/01/20 08:47:02;;;;;;;63.08;26.52;;;;;;;-2.63;nan;101096.25;5031604;28;20438;-71
2022/01/20 08:49:28;;;;;;;49.13;20.73;;;;;;;-2.68;nan;101080.34;5031818;28;20048;-71
2022/01/20 08:51:53;;;;;;;65.70;29.13;;;;;;;-2.66;nan;101064.72;5014693;28;20033;-73
2022/01/20 08:54:20;;;;;;;75.32;33.53;;;;;;;-2.63;nan;101054.19;5011731;28;20053;-73
2022/01/20 08:56:45;;;;;;;74.60;32.95;;;;;;;-2.49;nan;101069.38;5013871;28;20088;-72
2022/01/20 08:59:12;;;;;;;70.68;29.42;;;;;;;-2.44;nan;101072.41;5024965;28;20080;-73
2022/01/20 09:01:40;;;;;;;68.43;29.13;;;;;;;-2.36;nan;101076.94;5032921;28;20483;-73
2022/01/20 09:04:06;;;;;;;63.13;26.98;;;;;;;-2.41;nan;101059.25;5014841;28;20045;-73
2022/01/20 09:06:32;;;;;;;62.00;25.17;;;;;;;-2.36;nan;101059.69;5014678;28;20044;-72
2022/01/20 09:08:57;;;;;;;57.58;25.60;;;;;;;-2.31;nan;101053.34;5014207;28;20395;-72
2022/01/20 09:11:24;;;;;;;51.35;24.50;;;;;;;-2.23;nan;101069.00;5012606;28;20062;-70
2022/01/20 09:16:37;;;;;;;58.05;24.10;;;;;;;-2.17;nan;101066.75;5034652;28;20029;-73
2022/01/20 09:19:04;;;;;;;53.50;25.23;;;;;;;-2.17;nan;101050.47;5031829;28;20471;-73
2022/01/20 09:21:29;;;;;;;58.45;23.20;;;;;;;-2.16;nan;101036.59;5032043;28;20040;-72
2022/01/20 09:23:56;;;;;;;53.20;22.88;;;;;;;-2.11;nan;101039.63;5011078;28;20045;-72
2022/01/20 09:26:22;;;;;;;53.25;22.73;;;;;;;-2.07;nan;101028.13;5032931;28;20102;-72
2022/01/20 09:28:48;;;;;;;53.15;22.85;;;;;;;-1.99;nan;101030.06;5032775;28;20038;-70
2022/01/20 09:31:14;;;;;;;57.10;23.35;;;;;;;-1.95;nan;101040.00;5032477;28;20037;-73
2022/01/20 09:33:40;;;;;;;61.33;26.13;;;;;;;-1.98;nan;101045.41;5014355;28;20048;-72
2022/01/20 09:36:10;;;;;;;61.38;24.20;;;;;;;-1.86;nan;101051.34;5011373;28;20030;-72
2022/01/20 09:38:37;;;;;;;54.70;23.00;;;;;;;-1.85;nan;101052.94;5017803;28;20030;-72
2022/01/20 09:41:04;;;;;;;56.20;24.77;;;;;;;-1.79;nan;101039.53;5004377;28;20049;-72
2022/01/20 09:43:31;;;;;;;61.33;24.48;;;;;;;-1.80;nan;101027.56;5007265;28;20147;-72
2022/01/20 09:45:57;;;;;;;50.20;23.58;;;;;;;-1.76;nan;101010.88;5011823;28;20041;-70
2022/01/20 09:48:25;;;;;;;52.13;24.25;;;;;;;-1.71;nan;101021.63;5032671;28;20096;-72
2022/01/20 09:50:51;;;;;;;58.67;24.92;;;;;;;-1.84;nan;101015.06;5030917;28;20128;-72
2022/01/20 09:53:17;;;;;;;53.33;23.58;;;;;;;-1.66;nan;101030.75;5013290;28;20034;-73
2022/01/20 09:55:43;;;;;;;57.75;23.92;;;;;;;-1.62;nan;101032.16;5027261;28;20172;-71
2022/01/20 09:58:11;;;;;;;56.63;23.63;;;;;;;-1.76;nan;100989.41;5009691;28;20061;-71
2022/01/20 10:00:38;;;;;;;55.40;23.52;;;;;;;-1.68;nan;101009.41;5011124;28;20034;-71
2022/01/20 10:03:08;;;;;;;61.97;24.92;;;;;;;-1.56;nan;101011.75;5027601;28;20038;-71
2022/01/20 10:05:42;;;;;;;56.05;24.55;;;;;;;-1.63;nan;100994.34;5002742;28;20038;-71
2022/01/20 10:08:21;;;;;;;56.85;24.48;;;;;;;-1.54;nan;101004.72;5031778;28;20034;-74
2022/01/20 10:10:48;;;;;;;60.15;26.10;;;;;;;-1.58;nan;100981.84;5031530;28;20029;-72
2022/01/20 10:13:16;;;;;;;61.45;27.55;;;;;;;-1.59;nan;100972.50;5014656;28;20037;-72
2022/01/20 10:15:42;;;;;;;58.95;26.73;;;;;;;-1.50;nan;100979.44;5029706;28;20037;-73
2022/01/20 10:18:13;;;;;;;57.88;26.75;;;;;;;-1.42;nan;100981.38;5039590;28;20041;-72
2022/01/20 10:20:59;;;;;;;65.20;27.35;;;;;;;-1.52;nan;100948.56;5013039;28;20069;-72
2022/01/20 10:23:36;;;;;;;59.58;26.88;;;;;;;-1.50;nan;100946.69;5029212;28;20030;-71
2022/01/20 10:26:19;;;;;;;69.03;29.52;;;;;;;-1.38;nan;100941.41;5029946;28;20384;-70
2022/01/20 10:28:52;;;;;;;64.63;27.15;;;;;;;-1.36;nan;100967.94;5031374;28;20069;-70
2022/01/20 10:31:30;;;;;;;66.10;28.75;;;;;;;-1.47;nan;100924.13;5013314;28;20034;-74
2022/01/20 10:33:55;;;;;;;64.97;28.25;;;;;;;-1.45;nan;100909.31;5032322;28;20041;-71
2022/01/20 10:36:22;;;;;;;65.00;27.80;;;;;;;-1.42;nan;100907.28;5028201;28;20552;-72
2022/01/20 10:38:56;;;;;;;59.92;26.95;;;;;;;-1.34;nan;100916.94;4994186;28;20036;-72
2022/01/20 10:41:36;;;;;;;75.93;29.85;;;;;;;-1.25;nan;100889.47;5027819;28;21044;-72
2022/01/20 10:44:06;;;;;;;66.47;26.73;;;;;;;-1.09;nan;100911.22;5030803;28;20383;-73
2022/01/20 10:46:43;;;;;;;60.97;28.08;;;;;;;-1.12;nan;100914.09;5027303;28;20038;-73
2022/01/20 10:49:09;;;;;;;61.60;29.10;;;;;;;-1.19;nan;100902.66;5031363;28;20032;-73
2022/01/20 10:51:34;;;;;;;69.68;30.15;;;;;;;-1.14;nan;100908.25;5032079;28;20037;-73
2022/01/20 10:54:01;;;;;;;61.30;29.52;;;;;;;-1.05;nan;100914.38;5030594;28;20057;-71
2022/01/20 10:56:27;;;;;;;63.80;28.50;;;;;;;-1.05;nan;100906.63;5010557;28;20037;-72
2022/01/20 10:58:53;;;;;;;68.30;29.80;;;;;;;-1.00;nan;100903.63;5030491;28;20088;-72
2022/01/20 11:01:19;;;;;;;67.45;28.15;;;;;;;-1.03;nan;100894.38;5012593;28;20434;-72
2022/01/20 11:03:44;;;;;;;57.17;26.65;;;;;;;-1.03;nan;100883.22;5045076;28;20033;-71
2022/01/20 11:06:10;;;;;;;57.53;27.05;;;;;;;-0.96;nan;100877.38;5035218;28;20056;-73
2022/01/20 11:08:39;;;;;;;68.10;29.40;;;;;;;-1.00;nan;100864.88;5017335;28;20387;-72
2022/01/20 11:11:04;;;;;;;68.35;28.23;;;;;;;-1.03;nan;100865.13;5010228;28;20065;-71
2022/01/20 11:13:30;;;;;;;63.13;30.88;;;;;;;-0.94;nan;100857.34;5001751;28;20033;-71
2022/01/20 11:15:55;;;;;;;52.22;25.92;;;;;;;-1.14;nan;100817.81;5005608;28;20049;-73
2022/01/20 11:18:27;;;;;;;55.22;25.20;;;;;;;-0.91;nan;100846.75;5018835;28;20037;-70
2022/01/20 11:20:54;;;;;;;61.53;28.15;;;;;;;-1.03;nan;100823.75;5022674;28;20100;-72
2022/01/20 11:23:19;;;;;;;61.30;26.95;;;;;;;-0.92;nan;100837.34;5023809;28;20048;-72
2022/01/20 11:25:45;;;;;;;56.40;25.25;;;;;;;-0.86;nan;100841.97;5024357;28;20033;-72
2022/01/20 11:28:12;;;;;;;50.00;22.00;;;;;;;-0.81;nan;100844.16;5023799;28;20471;-72
2022/01/20 11:30:42;;;;;;;49.67;21.77;;;;;;;-0.82;nan;100837.31;5025562;28;20087;-71
2022/01/20 11:33:11;;;;;;;51.25;21.85;;;;;;;-0.81;nan;100828.63;5028074;28;20107;-75
2022/01/20 11:35:47;;;;;;;45.28;21.35;;;;;;;-0.80;nan;100835.41;5033005;28;20120;-75
2022/01/20 11:38:19;;;;;;;43.13;21.50;;;;;;;-0.80;nan;100832.84;5016684;28;20054;-73
2022/01/20 11:41:00;;;;;;;63.40;28.85;;;;;;;-0.85;nan;100827.28;5014595;28;20021;-72
2022/01/20 11:43:39;;;;;;;60.15;27.50;;;;;;;-0.78;nan;100825.75;5034216;28;20087;-71
2022/01/20 11:46:13;;;;;;;54.42;25.52;;;;;;;-0.76;nan;100825.63;5031061;28;20026;-72
2022/01/20 11:49:12;;;;;;;53.35;24.00;;;;;;;-0.74;nan;100821.09;5018281;28;20048;-72
2022/01/20 11:51:56;;;;;;;52.75;21.67;;;;;;;-0.74;nan;100821.09;4983983;28;20398;-71
2022/01/20 11:54:33;;;;;;;47.15;21.25;;;;;;;-0.77;nan;100809.28;5036185;28;20045;-75
2022/01/20 11:57:11;;;;;;;43.38;19.80;;;;;;;-0.71;nan;100807.91;5036745;28;20037;-72
2022/01/20 11:59:38;;;;;;;41.35;18.98;;;;;;;-0.70;nan;100799.19;5017720;28;20387;-72
2022/01/20 12:02:03;;;;;;;37.35;18.45;;;;;;;-0.76;nan;100782.47;5035329;28;20045;-72
2022/01/20 12:04:41;;;;;;;38.28;18.60;;;;;;;-0.70;nan;100789.66;5015226;28;20041;-72
2022/01/20 12:07:09;;;;;;;41.20;18.63;;;;;;;-0.67;nan;100781.63;5025979;28;20395;-76
2022/01/20 12:09:40;;;;;;;39.05;18.25;;;;;;;-0.72;nan;100768.31;5012129;28;20033;-74
2022/01/20 12:12:26;;;;;;;40.80;19.23;;;;;;;-0.70;nan;100763.78;5032712;28;20431;-73
2022/01/20 12:14:52;;;;;;;33.90;17.90;;;;;;;-0.67;nan;100753.19;5033684;28;20191;-71
2022/01/20 12:17:18;;;;;;;48.97;20.27;;;;;;;-0.67;nan;100760.09;5046384;28;20029;-72
2022/01/20 12:19:47;;;;;;;48.15;22.25;;;;;;;;;;5040986;28;20755;-72
2022/01/20 12:22:12;;;;;;;49.33;22.20;;;;;;;;;;5033526;28;20037;-76
2022/01/20 12:24:48;;;;;;;45.65;21.95;;;;;;;;;;5013100;28;20492;-72
2022/01/20 12:27:16;;;;;;;50.67;21.85;;;;;;;;;;5016313;28;20038;-74
2022/01/20 12:29:42;;;;;;;46.45;20.23;;;;;;;;;;5016224;28;20073;-72
2022/01/20 12:32:11;;;;;;;43.67;19.65;;;;;;;;;;5034455;28;20395;-72